sensor_id;sensor_type;location;lat;lon;timestamp;temperature;humidity
60313;DHT22;46158;52.850;6.970;2023-02-23T00:01:16;14.80;79.60
60313;DHT22;46158;52.850;6.970;2023-02-23T00:03:43;14.80;79.60
60313;DHT22;46158;52.850;6.970;2023-02-23T00:06:09;14.80;79.60
60313;DHT22;46158;52.850;6.970;2023-02-23T00:08:35;14.80;79.60
60313;DHT22;46158;52.850;6.970;2023-02-23T00:11:04;14.70;79.60
60313;DHT22;46158;52.850;6.970;2023-02-23T00:13:31;14.70;79.60
60313;DHT22;46158;52.850;6.970;2023-02-23T00:15:57;14.70;79.60
60313;DHT22;46158;52.850;6.970;2023-02-23T00:18:22;14.70;79.50
60313;DHT22;46158;52.850;6.970;2023-02-23T00:20:55;14.70;79.50
60313;DHT22;46158;52.850;6.970;2023-02-23T00:23:22;14.70;79.50
60313;DHT22;46158;52.850;6.970;2023-02-23T00:25:47;14.70;79.40
60313;DHT22;46158;52.850;6.970;2023-02-23T00:28:13;14.60;79.40
60313;DHT22;46158;52.850;6.970;2023-02-23T00:30:38;14.70;79.40
60313;DHT22;46158;52.850;6.970;2023-02-23T00:33:04;14.60;79.40
60313;DHT22;46158;52.850;6.970;2023-02-23T00:35:31;14.60;79.40
60313;DHT22;46158;52.850;6.970;2023-02-23T00:37:57;14.60;79.30
60313;DHT22;46158;52.850;6.970;2023-02-23T00:40:22;14.60;79.30
60313;DHT22;46158;52.850;6.970;2023-02-23T00:42:49;14.60;79.30
60313;DHT22;46158;52.850;6.970;2023-02-23T00:45:16;14.60;79.30
60313;DHT22;46158;52.850;6.970;2023-02-23T00:47:42;14.60;79.30
60313;DHT22;46158;52.850;6.970;2023-02-23T00:50:11;14.60;79.30
60313;DHT22;46158;52.850;6.970;2023-02-23T00:52:40;14.60;79.30
60313;DHT22;46158;52.850;6.970;2023-02-23T00:55:07;14.60;79.20
60313;DHT22;46158;52.850;6.970;2023-02-23T00:57:33;14.60;79.20
60313;DHT22;46158;52.850;6.970;2023-02-23T00:59:59;14.60;79.20
60313;DHT22;46158;52.850;6.970;2023-02-23T01:02:26;14.60;79.20
60313;DHT22;46158;52.850;6.970;2023-02-23T01:04:55;14.60;79.20
60313;DHT22;46158;52.850;6.970;2023-02-23T01:07:20;14.50;79.10
60313;DHT22;46158;52.850;6.970;2023-02-23T01:09:50;14.50;79.10
60313;DHT22;46158;52.850;6.970;2023-02-23T01:12:15;14.50;79.10
60313;DHT22;46158;52.850;6.970;2023-02-23T01:14:41;14.50;79.10
60313;DHT22;46158;52.850;6.970;2023-02-23T01:17:07;14.50;79.10
60313;DHT22;46158;52.850;6.970;2023-02-23T01:19:32;14.50;79.10
60313;DHT22;46158;52.850;6.970;2023-02-23T01:21:59;14.50;79.10
60313;DHT22;46158;52.850;6.970;2023-02-23T01:24:26;14.50;79.10
60313;DHT22;46158;52.850;6.970;2023-02-23T01:26:52;14.40;79.00
60313;DHT22;46158;52.850;6.970;2023-02-23T01:29:18;14.40;79.00
60313;DHT22;46158;52.850;6.970;2023-02-23T01:31:47;14.40;79.00
60313;DHT22;46158;52.850;6.970;2023-02-23T01:34:13;14.40;79.10
60313;DHT22;46158;52.850;6.970;2023-02-23T01:36:40;14.40;79.00
60313;DHT22;46158;52.850;6.970;2023-02-23T01:39:07;14.40;79.00
60313;DHT22;46158;52.850;6.970;2023-02-23T01:41:34;14.40;79.00
60313;DHT22;46158;52.850;6.970;2023-02-23T01:44:06;14.40;79.00
60313;DHT22;46158;52.850;6.970;2023-02-23T01:46:33;14.40;79.00
60313;DHT22;46158;52.850;6.970;2023-02-23T01:48:59;14.40;79.00
60313;DHT22;46158;52.850;6.970;2023-02-23T01:51:29;14.40;79.00
60313;DHT22;46158;52.850;6.970;2023-02-23T01:53:58;14.40;78.90
60313;DHT22;46158;52.850;6.970;2023-02-23T01:56:28;14.30;78.90
60313;DHT22;46158;52.850;6.970;2023-02-23T01:58:56;14.30;78.90
60313;DHT22;46158;52.850;6.970;2023-02-23T02:01:21;14.30;78.90
60313;DHT22;46158;52.850;6.970;2023-02-23T02:03:49;14.30;78.90
60313;DHT22;46158;52.850;6.970;2023-02-23T02:06:16;14.30;78.90
60313;DHT22;46158;52.850;6.970;2023-02-23T02:08:44;14.30;78.90
60313;DHT22;46158;52.850;6.970;2023-02-23T02:11:15;14.30;78.90
60313;DHT22;46158;52.850;6.970;2023-02-23T02:13:51;14.30;78.90
60313;DHT22;46158;52.850;6.970;2023-02-23T02:24:37;14.20;78.80
60313;DHT22;46158;52.850;6.970;2023-02-23T02:45:24;14.20;78.80
60313;DHT22;46158;52.850;6.970;2023-02-23T02:47:55;14.20;78.70
60313;DHT22;46158;52.850;6.970;2023-02-23T02:50:25;14.20;78.80
60313;DHT22;46158;52.850;6.970;2023-02-23T02:53:13;14.10;78.70
60313;DHT22;46158;52.850;6.970;2023-02-23T02:55:41;14.10;78.70
60313;DHT22;46158;52.850;6.970;2023-02-23T02:58:08;14.10;78.70
60313;DHT22;46158;52.850;6.970;2023-02-23T03:03:28;14.10;78.70
60313;DHT22;46158;52.850;6.970;2023-02-23T03:06:14;14.10;78.60
60313;DHT22;46158;52.850;6.970;2023-02-23T03:12:04;14.10;78.70
60313;DHT22;46158;52.850;6.970;2023-02-23T03:15:02;14.10;78.60
60313;DHT22;46158;52.850;6.970;2023-02-23T03:17:48;14.00;78.50
60313;DHT22;46158;52.850;6.970;2023-02-23T03:23:26;14.00;78.40
60313;DHT22;46158;52.850;6.970;2023-02-23T03:26:15;14.00;78.40
60313;DHT22;46158;52.850;6.970;2023-02-23T03:29:11;14.00;78.40
60313;DHT22;46158;52.850;6.970;2023-02-23T03:34:46;14.00;78.40
60313;DHT22;46158;52.850;6.970;2023-02-23T03:37:36;14.00;78.30
60313;DHT22;46158;52.850;6.970;2023-02-23T03:40:40;14.00;78.40
60313;DHT22;46158;52.850;6.970;2023-02-23T03:43:26;14.00;78.40
60313;DHT22;46158;52.850;6.970;2023-02-23T03:46:12;13.90;78.30
60313;DHT22;46158;52.850;6.970;2023-02-23T03:48:57;13.90;78.40
60313;DHT22;46158;52.850;6.970;2023-02-23T03:51:44;14.00;78.40
60313;DHT22;46158;52.850;6.970;2023-02-23T03:54:34;13.90;78.30
60313;DHT22;46158;52.850;6.970;2023-02-23T03:57:20;13.90;78.30
60313;DHT22;46158;52.850;6.970;2023-02-23T04:00:07;13.90;78.30
60313;DHT22;46158;52.850;6.970;2023-02-23T04:02:52;13.90;78.30
60313;DHT22;46158;52.850;6.970;2023-02-23T04:05:38;13.90;78.30
60313;DHT22;46158;52.850;6.970;2023-02-23T04:08:24;13.90;78.30
60313;DHT22;46158;52.850;6.970;2023-02-23T04:11:16;13.90;78.20
60313;DHT22;46158;52.850;6.970;2023-02-23T04:14:03;13.90;78.20
60313;DHT22;46158;52.850;6.970;2023-02-23T04:16:29;13.80;78.20
60313;DHT22;46158;52.850;6.970;2023-02-23T04:18:56;13.80;78.20
60313;DHT22;46158;52.850;6.970;2023-02-23T04:21:22;13.80;78.20
60313;DHT22;46158;52.850;6.970;2023-02-23T04:23:47;13.80;78.20
60313;DHT22;46158;52.850;6.970;2023-02-23T04:26:13;13.80;78.20
60313;DHT22;46158;52.850;6.970;2023-02-23T04:28:39;13.80;78.30
60313;DHT22;46158;52.850;6.970;2023-02-23T04:31:04;13.70;78.20
60313;DHT22;46158;52.850;6.970;2023-02-23T04:33:30;13.80;78.30
60313;DHT22;46158;52.850;6.970;2023-02-23T04:35:55;13.80;78.30
60313;DHT22;46158;52.850;6.970;2023-02-23T04:38:21;13.70;78.20
60313;DHT22;46158;52.850;6.970;2023-02-23T04:40:47;13.80;78.20
60313;DHT22;46158;52.850;6.970;2023-02-23T04:43:13;13.70;78.10
60313;DHT22;46158;52.850;6.970;2023-02-23T04:45:38;13.80;78.20
60313;DHT22;46158;52.850;6.970;2023-02-23T04:48:04;13.80;78.10
60313;DHT22;46158;52.850;6.970;2023-02-23T04:50:30;13.70;78.10
60313;DHT22;46158;52.850;6.970;2023-02-23T04:52:55;13.70;78.00
60313;DHT22;46158;52.850;6.970;2023-02-23T04:55:22;13.70;78.00
60313;DHT22;46158;52.850;6.970;2023-02-23T04:57:48;13.70;78.10
60313;DHT22;46158;52.850;6.970;2023-02-23T05:00:13;13.70;78.00
60313;DHT22;46158;52.850;6.970;2023-02-23T05:02:39;13.70;78.00
60313;DHT22;46158;52.850;6.970;2023-02-23T05:05:05;13.70;78.00
60313;DHT22;46158;52.850;6.970;2023-02-23T05:07:32;13.70;77.90
60313;DHT22;46158;52.850;6.970;2023-02-23T05:09:57;13.70;77.90
60313;DHT22;46158;52.850;6.970;2023-02-23T05:12:23;13.70;77.90
60313;DHT22;46158;52.850;6.970;2023-02-23T05:14:48;13.70;78.00
60313;DHT22;46158;52.850;6.970;2023-02-23T05:17:14;13.60;78.60
60313;DHT22;46158;52.850;6.970;2023-02-23T05:19:40;13.60;78.00
60313;DHT22;46158;52.850;6.970;2023-02-23T05:22:05;13.70;78.10
60313;DHT22;46158;52.850;6.970;2023-02-23T05:24:31;13.60;78.00
60313;DHT22;46158;52.850;6.970;2023-02-23T05:26:57;13.60;78.10
60313;DHT22;46158;52.850;6.970;2023-02-23T05:29:23;13.70;78.10
60313;DHT22;46158;52.850;6.970;2023-02-23T05:31:49;13.70;78.30
60313;DHT22;46158;52.850;6.970;2023-02-23T05:34:14;13.60;78.20
60313;DHT22;46158;52.850;6.970;2023-02-23T05:36:41;13.70;78.20
60313;DHT22;46158;52.850;6.970;2023-02-23T05:39:07;13.70;78.30
60313;DHT22;46158;52.850;6.970;2023-02-23T05:41:33;13.70;78.30
60313;DHT22;46158;52.850;6.970;2023-02-23T05:43:58;13.70;78.30
60313;DHT22;46158;52.850;6.970;2023-02-23T05:46:25;13.70;78.40
60313;DHT22;46158;52.850;6.970;2023-02-23T05:48:54;13.70;78.50
60313;DHT22;46158;52.850;6.970;2023-02-23T05:51:20;13.70;78.50
60313;DHT22;46158;52.850;6.970;2023-02-23T05:53:46;13.70;78.50
60313;DHT22;46158;52.850;6.970;2023-02-23T05:56:13;13.60;78.50
60313;DHT22;46158;52.850;6.970;2023-02-23T05:58:42;13.70;78.60
60313;DHT22;46158;52.850;6.970;2023-02-23T06:01:08;13.70;78.70
60313;DHT22;46158;52.850;6.970;2023-02-23T06:03:33;13.70;78.70
60313;DHT22;46158;52.850;6.970;2023-02-23T06:05:59;13.70;78.80
60313;DHT22;46158;52.850;6.970;2023-02-23T06:08:25;13.70;78.80
60313;DHT22;46158;52.850;6.970;2023-02-23T06:10:51;13.70;78.80
60313;DHT22;46158;52.850;6.970;2023-02-23T06:13:17;13.70;78.90
60313;DHT22;46158;52.850;6.970;2023-02-23T06:15:43;13.70;79.00
60313;DHT22;46158;52.850;6.970;2023-02-23T06:18:08;13.70;79.00
60313;DHT22;46158;52.850;6.970;2023-02-23T06:20:35;13.70;79.10
60313;DHT22;46158;52.850;6.970;2023-02-23T06:23:00;13.70;79.10
60313;DHT22;46158;52.850;6.970;2023-02-23T06:25:26;13.70;79.20
60313;DHT22;46158;52.850;6.970;2023-02-23T06:27:51;13.70;79.20
60313;DHT22;46158;52.850;6.970;2023-02-23T06:30:17;13.70;79.20
60313;DHT22;46158;52.850;6.970;2023-02-23T06:32:43;13.70;79.20
60313;DHT22;46158;52.850;6.970;2023-02-23T06:35:09;13.70;79.20
60313;DHT22;46158;52.850;6.970;2023-02-23T06:37:34;13.70;79.30
60313;DHT22;46158;52.850;6.970;2023-02-23T06:40:01;13.70;79.30
60313;DHT22;46158;52.850;6.970;2023-02-23T06:42:26;13.70;79.30
60313;DHT22;46158;52.850;6.970;2023-02-23T06:44:52;13.80;79.40
60313;DHT22;46158;52.850;6.970;2023-02-23T06:47:17;13.70;79.30
60313;DHT22;46158;52.850;6.970;2023-02-23T06:49:43;13.70;79.40
60313;DHT22;46158;52.850;6.970;2023-02-23T06:52:09;13.80;79.50
60313;DHT22;46158;52.850;6.970;2023-02-23T06:54:34;13.80;79.50
60313;DHT22;46158;52.850;6.970;2023-02-23T06:57:02;13.70;80.10
60313;DHT22;46158;52.850;6.970;2023-02-23T06:59:27;13.80;79.50
60313;DHT22;46158;52.850;6.970;2023-02-23T07:01:54;13.80;79.50
60313;DHT22;46158;52.850;6.970;2023-02-23T07:04:20;13.80;79.50
60313;DHT22;46158;52.850;6.970;2023-02-23T07:06:46;13.80;79.50
60313;DHT22;46158;52.850;6.970;2023-02-23T07:09:12;13.80;79.60
60313;DHT22;46158;52.850;6.970;2023-02-23T07:11:38;13.80;79.60
60313;DHT22;46158;52.850;6.970;2023-02-23T07:14:05;13.80;79.60
60313;DHT22;46158;52.850;6.970;2023-02-23T07:16:31;13.80;79.60
60313;DHT22;46158;52.850;6.970;2023-02-23T07:18:56;13.80;79.60
60313;DHT22;46158;52.850;6.970;2023-02-23T07:21:22;13.80;79.70
60313;DHT22;46158;52.850;6.970;2023-02-23T07:23:48;13.80;79.60
60313;DHT22;46158;52.850;6.970;2023-02-23T07:26:15;13.80;79.60
60313;DHT22;46158;52.850;6.970;2023-02-23T07:28:41;13.80;79.60
60313;DHT22;46158;52.850;6.970;2023-02-23T07:31:07;13.80;79.70
60313;DHT22;46158;52.850;6.970;2023-02-23T07:33:33;13.80;79.70
60313;DHT22;46158;52.850;6.970;2023-02-23T07:35:59;13.80;79.20
60313;DHT22;46158;52.850;6.970;2023-02-23T07:38:24;13.80;79.40
60313;DHT22;46158;52.850;6.970;2023-02-23T07:40:50;13.80;79.50
60313;DHT22;46158;52.850;6.970;2023-02-23T07:43:16;13.80;79.60
60313;DHT22;46158;52.850;6.970;2023-02-23T07:45:41;13.80;79.70
60313;DHT22;46158;52.850;6.970;2023-02-23T07:48:08;13.80;79.80
60313;DHT22;46158;52.850;6.970;2023-02-23T07:50:34;13.90;80.00
60313;DHT22;46158;52.850;6.970;2023-02-23T07:53:00;13.80;80.00
60313;DHT22;46158;52.850;6.970;2023-02-23T07:55:26;13.80;80.00
60313;DHT22;46158;52.850;6.970;2023-02-23T07:57:51;13.90;80.20
60313;DHT22;46158;52.850;6.970;2023-02-23T08:00:17;13.90;80.30
60313;DHT22;46158;52.850;6.970;2023-02-23T08:02:43;13.90;80.40
60313;DHT22;46158;52.850;6.970;2023-02-23T08:05:09;13.90;80.40
60313;DHT22;46158;52.850;6.970;2023-02-23T08:07:34;13.90;80.50
60313;DHT22;46158;52.850;6.970;2023-02-23T08:10:00;14.00;80.60
60313;DHT22;46158;52.850;6.970;2023-02-23T08:12:26;13.90;80.50
60313;DHT22;46158;52.850;6.970;2023-02-23T08:14:51;14.00;80.50
60313;DHT22;46158;52.850;6.970;2023-02-23T08:17:18;14.00;80.50
60313;DHT22;46158;52.850;6.970;2023-02-23T08:19:43;14.00;80.50
60313;DHT22;46158;52.850;6.970;2023-02-23T08:22:09;14.00;80.40
60313;DHT22;46158;52.850;6.970;2023-02-23T08:24:35;14.00;80.40
60313;DHT22;46158;52.850;6.970;2023-02-23T08:27:01;14.00;80.50
60313;DHT22;46158;52.850;6.970;2023-02-23T08:29:27;14.00;80.80
60313;DHT22;46158;52.850;6.970;2023-02-23T08:31:54;14.00;81.00
60313;DHT22;46158;52.850;6.970;2023-02-23T08:34:20;14.00;81.00
60313;DHT22;46158;52.850;6.970;2023-02-23T08:36:47;14.00;81.00
60313;DHT22;46158;52.850;6.970;2023-02-23T08:39:13;14.00;80.90
60313;DHT22;46158;52.850;6.970;2023-02-23T08:41:39;14.10;81.00
60313;DHT22;46158;52.850;6.970;2023-02-23T08:44:06;14.00;80.80
60313;DHT22;46158;52.850;6.970;2023-02-23T08:46:31;14.00;80.90
60313;DHT22;46158;52.850;6.970;2023-02-23T08:48:57;14.10;80.80
60313;DHT22;46158;52.850;6.970;2023-02-23T08:51:23;14.10;80.80
60313;DHT22;46158;52.850;6.970;2023-02-23T08:53:48;14.10;80.90
60313;DHT22;46158;52.850;6.970;2023-02-23T08:56:14;14.10;81.00
60313;DHT22;46158;52.850;6.970;2023-02-23T08:58:41;14.10;81.10
60313;DHT22;46158;52.850;6.970;2023-02-23T09:01:06;14.10;81.00
60313;DHT22;46158;52.850;6.970;2023-02-23T09:03:32;14.10;80.90
60313;DHT22;46158;52.850;6.970;2023-02-23T09:06:06;14.10;80.50
60313;DHT22;46158;52.850;6.970;2023-02-23T09:08:32;14.10;80.40
60313;DHT22;46158;52.850;6.970;2023-02-23T09:10:58;14.10;79.90
60313;DHT22;46158;52.850;6.970;2023-02-23T09:13:24;14.10;80.10
60313;DHT22;46158;52.850;6.970;2023-02-23T09:15:50;14.10;80.10
60313;DHT22;46158;52.850;6.970;2023-02-23T09:18:15;14.10;80.10
60313;DHT22;46158;52.850;6.970;2023-02-23T09:20:41;14.10;80.30
60313;DHT22;46158;52.850;6.970;2023-02-23T09:23:09;14.10;80.30
60313;DHT22;46158;52.850;6.970;2023-02-23T09:25:39;14.10;81.00
60313;DHT22;46158;52.850;6.970;2023-02-23T09:28:08;14.10;80.40
60313;DHT22;46158;52.850;6.970;2023-02-23T09:30:34;14.10;80.40
60313;DHT22;46158;52.850;6.970;2023-02-23T09:33:00;14.10;80.50
60313;DHT22;46158;52.850;6.970;2023-02-23T09:35:25;14.10;80.50
60313;DHT22;46158;52.850;6.970;2023-02-23T09:37:52;14.10;80.50
60313;DHT22;46158;52.850;6.970;2023-02-23T09:40:23;14.10;80.60
60313;DHT22;46158;52.850;6.970;2023-02-23T09:43:00;14.10;80.60
60313;DHT22;46158;52.850;6.970;2023-02-23T09:45:32;14.10;80.60
60313;DHT22;46158;52.850;6.970;2023-02-23T09:50:29;14.10;80.60
60313;DHT22;46158;52.850;6.970;2023-02-23T09:52:59;14.10;80.60
60313;DHT22;46158;52.850;6.970;2023-02-23T09:55:26;14.10;80.60
60313;DHT22;46158;52.850;6.970;2023-02-23T09:57:52;14.10;80.60
60313;DHT22;46158;52.850;6.970;2023-02-23T10:00:22;14.10;81.30
60313;DHT22;46158;52.850;6.970;2023-02-23T10:02:58;14.10;80.60
60313;DHT22;46158;52.850;6.970;2023-02-23T10:05:25;14.20;80.60
60313;DHT22;46158;52.850;6.970;2023-02-23T10:08:01;14.20;80.50
60313;DHT22;46158;52.850;6.970;2023-02-23T10:12:57;14.10;80.10
60313;DHT22;46158;52.850;6.970;2023-02-23T10:20:40;14.20;80.20
60313;DHT22;46158;52.850;6.970;2023-02-23T10:23:10;14.10;80.20
60313;DHT22;46158;52.850;6.970;2023-02-23T10:25:40;14.20;80.30
60313;DHT22;46158;52.850;6.970;2023-02-23T10:28:09;14.20;80.30
60313;DHT22;46158;52.850;6.970;2023-02-23T10:30:36;14.20;80.30
60313;DHT22;46158;52.850;6.970;2023-02-23T10:33:15;14.20;80.30
60313;DHT22;46158;52.850;6.970;2023-02-23T10:35:43;14.20;80.30
60313;DHT22;46158;52.850;6.970;2023-02-23T10:38:16;14.20;80.30
60313;DHT22;46158;52.850;6.970;2023-02-23T10:40:49;14.20;80.30
60313;DHT22;46158;52.850;6.970;2023-02-23T10:43:15;14.20;80.30
60313;DHT22;46158;52.850;6.970;2023-02-23T10:45:44;14.20;80.30
60313;DHT22;46158;52.850;6.970;2023-02-23T10:48:24;14.20;80.30
60313;DHT22;46158;52.850;6.970;2023-02-23T10:50:54;14.20;80.20
60313;DHT22;46158;52.850;6.970;2023-02-23T10:53:24;14.20;80.20
60313;DHT22;46158;52.850;6.970;2023-02-23T10:56:04;14.20;80.10
60313;DHT22;46158;52.850;6.970;2023-02-23T10:58:30;14.30;80.20
60313;DHT22;46158;52.850;6.970;2023-02-23T11:01:00;14.20;79.70
60313;DHT22;46158;52.850;6.970;2023-02-23T11:05:55;14.20;79.40
60313;DHT22;46158;52.850;6.970;2023-02-23T11:08:22;14.20;79.10
60313;DHT22;46158;52.850;6.970;2023-02-23T11:10:55;14.20;78.90
60313;DHT22;46158;52.850;6.970;2023-02-23T11:13:21;14.20;78.70
60313;DHT22;46158;52.850;6.970;2023-02-23T11:15:47;14.20;78.50
60313;DHT22;46158;52.850;6.970;2023-02-23T11:18:20;14.10;78.40
60313;DHT22;46158;52.850;6.970;2023-02-23T11:20:47;14.10;78.40
60313;DHT22;46158;52.850;6.970;2023-02-23T11:23:27;14.10;78.30
60313;DHT22;46158;52.850;6.970;2023-02-23T11:25:54;14.10;78.20
60313;DHT22;46158;52.850;6.970;2023-02-23T11:28:24;14.10;78.10
60313;DHT22;46158;52.850;6.970;2023-02-23T11:30:55;14.10;78.00
60313;DHT22;46158;52.850;6.970;2023-02-23T11:33:25;14.10;78.00
60313;DHT22;46158;52.850;6.970;2023-02-23T11:35:58;14.10;78.00
60313;DHT22;46158;52.850;6.970;2023-02-23T11:38:27;14.10;78.10
60313;DHT22;46158;52.850;6.970;2023-02-23T11:43:24;14.10;77.90
60313;DHT22;46158;52.850;6.970;2023-02-23T11:45:51;14.10;77.90
60313;DHT22;46158;52.850;6.970;2023-02-23T11:48:19;14.10;77.90
60313;DHT22;46158;52.850;6.970;2023-02-23T11:50:45;14.10;77.90
60313;DHT22;46158;52.850;6.970;2023-02-23T11:53:16;14.10;77.80
60313;DHT22;46158;52.850;6.970;2023-02-23T11:55:49;14.10;77.80
60313;DHT22;46158;52.850;6.970;2023-02-23T12:01:02;14.10;77.70
60313;DHT22;46158;52.850;6.970;2023-02-23T12:03:31;14.00;77.70
60313;DHT22;46158;52.850;6.970;2023-02-23T12:05:57;14.00;77.60
60313;DHT22;46158;52.850;6.970;2023-02-23T12:08:38;14.10;77.70
60313;DHT22;46158;52.850;6.970;2023-02-23T12:11:09;14.00;77.60
60313;DHT22;46158;52.850;6.970;2023-02-23T12:13:41;14.00;77.50
60313;DHT22;46158;52.850;6.970;2023-02-23T12:16:17;14.00;77.50
60313;DHT22;46158;52.850;6.970;2023-02-23T12:23:45;14.00;77.50
60313;DHT22;46158;52.850;6.970;2023-02-23T12:26:17;14.10;77.50
60313;DHT22;46158;52.850;6.970;2023-02-23T12:29:35;14.10;77.50
60313;DHT22;46158;52.850;6.970;2023-02-23T12:31:48;14.00;77.40
60313;DHT22;46158;52.850;6.970;2023-02-23T12:34:23;14.00;77.30
60313;DHT22;46158;52.850;6.970;2023-02-23T12:36:56;14.10;77.40
60313;DHT22;46158;52.850;6.970;2023-02-23T12:39:35;14.00;77.30
60313;DHT22;46158;52.850;6.970;2023-02-23T12:55:14;14.00;77.10
60313;DHT22;46158;52.850;6.970;2023-02-23T12:57:51;14.00;77.00
60313;DHT22;46158;52.850;6.970;2023-02-23T13:00:38;14.00;77.00
60313;DHT22;46158;52.850;6.970;2023-02-23T13:03:29;14.00;77.00
60313;DHT22;46158;52.850;6.970;2023-02-23T13:16:33;14.00;76.90
60313;DHT22;46158;52.850;6.970;2023-02-23T13:19:13;14.10;76.90
60313;DHT22;46158;52.850;6.970;2023-02-23T13:21:45;14.10;76.90
60313;DHT22;46158;52.850;6.970;2023-02-23T13:24:16;14.00;76.80
60313;DHT22;46158;52.850;6.970;2023-02-23T13:31:46;14.00;76.70
60313;DHT22;46158;52.850;6.970;2023-02-23T13:34:14;14.00;76.70
60313;DHT22;46158;52.850;6.970;2023-02-23T13:36:42;14.00;76.70
60313;DHT22;46158;52.850;6.970;2023-02-23T13:47:05;14.00;76.70
60313;DHT22;46158;52.850;6.970;2023-02-23T13:49:40;14.10;76.70
60313;DHT22;46158;52.850;6.970;2023-02-23T13:54:55;14.00;76.60
60313;DHT22;46158;52.850;6.970;2023-02-23T13:57:26;14.00;76.60
60313;DHT22;46158;52.850;6.970;2023-02-23T13:59:52;14.10;76.60
60313;DHT22;46158;52.850;6.970;2023-02-23T14:02:22;14.10;76.60
60313;DHT22;46158;52.850;6.970;2023-02-23T14:04:55;14.00;76.50
60313;DHT22;46158;52.850;6.970;2023-02-23T14:07:26;14.00;76.50
60313;DHT22;46158;52.850;6.970;2023-02-23T14:09:53;14.00;76.50
60313;DHT22;46158;52.850;6.970;2023-02-23T14:12:23;14.10;76.60
60313;DHT22;46158;52.850;6.970;2023-02-23T14:14:49;14.00;76.50
60313;DHT22;46158;52.850;6.970;2023-02-23T14:19:41;14.00;76.50
60313;DHT22;46158;52.850;6.970;2023-02-23T14:22:12;14.10;76.60
60313;DHT22;46158;52.850;6.970;2023-02-23T14:24:38;14.00;76.50
60313;DHT22;46158;52.850;6.970;2023-02-23T14:29:37;14.10;76.50
60313;DHT22;46158;52.850;6.970;2023-02-23T14:34:52;14.00;76.40
60313;DHT22;46158;52.850;6.970;2023-02-23T14:40:15;14.10;76.30
60313;DHT22;46158;52.850;6.970;2023-02-23T14:42:43;14.00;76.30
60313;DHT22;46158;52.850;6.970;2023-02-23T14:45:17;14.00;76.30
60313;DHT22;46158;52.850;6.970;2023-02-23T14:47:45;14.00;76.30
60313;DHT22;46158;52.850;6.970;2023-02-23T14:50:13;14.00;76.30
60313;DHT22;46158;52.850;6.970;2023-02-23T14:52:43;14.00;76.30
60313;DHT22;46158;52.850;6.970;2023-02-23T14:55:25;14.00;76.30
60313;DHT22;46158;52.850;6.970;2023-02-23T14:57:51;14.00;76.30
60313;DHT22;46158;52.850;6.970;2023-02-23T15:00:25;14.00;76.30
60313;DHT22;46158;52.850;6.970;2023-02-23T15:02:53;14.00;76.30
60313;DHT22;46158;52.850;6.970;2023-02-23T15:05:21;14.00;76.30
60313;DHT22;46158;52.850;6.970;2023-02-23T15:07:47;14.00;76.20
60313;DHT22;46158;52.850;6.970;2023-02-23T15:10:21;14.00;76.10
60313;DHT22;46158;52.850;6.970;2023-02-23T15:12:48;14.00;76.00
60313;DHT22;46158;52.850;6.970;2023-02-23T15:15:16;14.00;75.90
60313;DHT22;46158;52.850;6.970;2023-02-23T15:17:43;14.00;75.80
60313;DHT22;46158;52.850;6.970;2023-02-23T15:20:15;14.00;75.80
60313;DHT22;46158;52.850;6.970;2023-02-23T15:22:41;14.00;75.60
60313;DHT22;46158;52.850;6.970;2023-02-23T15:25:17;14.00;75.50
60313;DHT22;46158;52.850;6.970;2023-02-23T15:27:43;14.00;75.40
60313;DHT22;46158;52.850;6.970;2023-02-23T15:30:26;14.00;75.20
60313;DHT22;46158;52.850;6.970;2023-02-23T15:33:04;14.00;75.10
60313;DHT22;46158;52.850;6.970;2023-02-23T15:35:34;14.00;75.00
60313;DHT22;46158;52.850;6.970;2023-02-23T15:38:07;14.00;75.00
60313;DHT22;46158;52.850;6.970;2023-02-23T15:40:34;14.00;74.90
60313;DHT22;46158;52.850;6.970;2023-02-23T15:42:59;14.00;74.70
60313;DHT22;46158;52.850;6.970;2023-02-23T15:47:52;14.00;74.60
60313;DHT22;46158;52.850;6.970;2023-02-23T15:50:39;14.00;74.60
60313;DHT22;46158;52.850;6.970;2023-02-23T15:53:12;14.00;74.60
60313;DHT22;46158;52.850;6.970;2023-02-23T15:55:43;14.00;74.60
60313;DHT22;46158;52.850;6.970;2023-02-23T15:58:16;14.00;74.40
60313;DHT22;46158;52.850;6.970;2023-02-23T16:00:43;14.00;74.40
60313;DHT22;46158;52.850;6.970;2023-02-23T16:08:25;13.90;74.10
60313;DHT22;46158;52.850;6.970;2023-02-23T16:10:53;13.90;74.00
60313;DHT22;46158;52.850;6.970;2023-02-23T16:13:21;14.00;74.10
60313;DHT22;46158;52.850;6.970;2023-02-23T16:15:47;14.00;74.00
60313;DHT22;46158;52.850;6.970;2023-02-23T16:18:17;13.90;74.00
60313;DHT22;46158;52.850;6.970;2023-02-23T16:20:51;13.90;73.90
60313;DHT22;46158;52.850;6.970;2023-02-23T16:23:28;13.90;74.00
60313;DHT22;46158;52.850;6.970;2023-02-23T16:25:55;14.00;75.00
60313;DHT22;46158;52.850;6.970;2023-02-23T16:28:26;13.90;74.70
60313;DHT22;46158;52.850;6.970;2023-02-23T16:31:04;13.90;74.70
60313;DHT22;46158;52.850;6.970;2023-02-23T16:33:40;14.00;74.90
60313;DHT22;46158;52.850;6.970;2023-02-23T16:38:39;13.90;75.20
60313;DHT22;46158;52.850;6.970;2023-02-23T16:41:09;14.00;75.40
60313;DHT22;46158;52.850;6.970;2023-02-23T16:43:38;13.90;75.50
60313;DHT22;46158;52.850;6.970;2023-02-23T16:46:04;13.90;75.70
60313;DHT22;46158;52.850;6.970;2023-02-23T16:48:33;14.00;75.90
60313;DHT22;46158;52.850;6.970;2023-02-23T16:51:00;14.00;76.10
60313;DHT22;46158;52.850;6.970;2023-02-23T16:53:27;14.00;76.20
60313;DHT22;46158;52.850;6.970;2023-02-23T16:55:53;14.00;76.30
60313;DHT22;46158;52.850;6.970;2023-02-23T16:58:21;14.00;76.40
60313;DHT22;46158;52.850;6.970;2023-02-23T17:00:47;14.00;76.60
60313;DHT22;46158;52.850;6.970;2023-02-23T17:03:17;14.00;76.70
60313;DHT22;46158;52.850;6.970;2023-02-23T17:05:44;14.00;76.80
60313;DHT22;46158;52.850;6.970;2023-02-23T17:08:10;14.00;77.00
60313;DHT22;46158;52.850;6.970;2023-02-23T17:10:35;14.00;77.00
60313;DHT22;46158;52.850;6.970;2023-02-23T17:13:02;14.00;77.10
60313;DHT22;46158;52.850;6.970;2023-02-23T17:15:37;14.00;77.20
60313;DHT22;46158;52.850;6.970;2023-02-23T17:18:06;14.00;77.40
60313;DHT22;46158;52.850;6.970;2023-02-23T17:20:31;14.00;77.50
60313;DHT22;46158;52.850;6.970;2023-02-23T17:22:58;14.00;77.60
60313;DHT22;46158;52.850;6.970;2023-02-23T17:25:24;14.10;77.70
60313;DHT22;46158;52.850;6.970;2023-02-23T17:27:51;14.10;77.70
60313;DHT22;46158;52.850;6.970;2023-02-23T17:30:17;14.10;78.50
60313;DHT22;46158;52.850;6.970;2023-02-23T17:32:43;14.10;77.90
60313;DHT22;46158;52.850;6.970;2023-02-23T17:35:09;14.10;77.20
60313;DHT22;46158;52.850;6.970;2023-02-23T17:37:34;14.10;77.70
60313;DHT22;46158;52.850;6.970;2023-02-23T17:40:08;14.10;77.90
60313;DHT22;46158;52.850;6.970;2023-02-23T17:42:34;14.10;78.10
60313;DHT22;46158;52.850;6.970;2023-02-23T17:45:00;14.10;76.80